sensor_id;sensor_type;location;lat;lon;timestamp;P1;durP1;ratioP1;P2;durP2;ratioP2
19903;SDS011;10114;50.970;4.962;2023-06-14T00:00:51;13.25;;;5.30;;
19903;SDS011;10114;50.970;4.962;2023-06-14T00:03:18;7.15;;;4.47;;
19903;SDS011;10114;50.970;4.962;2023-06-14T00:05:47;12.73;;;5.15;;
19903;SDS011;10114;50.970;4.962;2023-06-14T00:08:13;9.88;;;4.78;;
19903;SDS011;10114;50.970;4.962;2023-06-14T00:10:39;9.10;;;5.88;;
19903;SDS011;10114;50.970;4.962;2023-06-14T00:13:07;10.00;;;5.28;;
19903;SDS011;10114;50.970;4.962;2023-06-14T00:15:34;10.45;;;6.03;;
19903;SDS011;10114;50.970;4.962;2023-06-14T00:18:00;8.02;;;4.85;;
19903;SDS011;10114;50.970;4.962;2023-06-14T00:20:27;11.35;;;5.25;;
19903;SDS011;10114;50.970;4.962;2023-06-14T00:22:53;11.98;;;5.22;;
19903;SDS011;10114;50.970;4.962;2023-06-14T00:25:20;10.05;;;5.20;;
19903;SDS011;10114;50.970;4.962;2023-06-14T00:27:46;15.93;;;6.00;;
19903;SDS011;10114;50.970;4.962;2023-06-14T00:30:12;12.05;;;5.05;;
19903;SDS011;10114;50.970;4.962;2023-06-14T00:32:38;13.07;;;5.05;;
19903;SDS011;10114;50.970;4.962;2023-06-14T00:35:04;9.73;;;4.82;;
19903;SDS011;10114;50.970;4.962;2023-06-14T00:37:32;10.10;;;5.35;;
19903;SDS011;10114;50.970;4.962;2023-06-14T00:39:58;13.55;;;5.47;;
19903;SDS011;10114;50.970;4.962;2023-06-14T00:42:25;7.78;;;4.97;;
19903;SDS011;10114;50.970;4.962;2023-06-14T00:44:51;13.70;;;5.93;;
19903;SDS011;10114;50.970;4.962;2023-06-14T00:47:17;9.80;;;5.15;;
19903;SDS011;10114;50.970;4.962;2023-06-14T00:49:45;9.13;;;4.97;;
19903;SDS011;10114;50.970;4.962;2023-06-14T00:52:11;9.23;;;5.20;;
19903;SDS011;10114;50.970;4.962;2023-06-14T00:54:38;10.63;;;5.20;;
19903;SDS011;10114;50.970;4.962;2023-06-14T00:57:04;10.43;;;5.20;;
19903;SDS011;10114;50.970;4.962;2023-06-14T00:59:30;9.23;;;4.80;;
19903;SDS011;10114;50.970;4.962;2023-06-14T01:01:57;11.13;;;5.50;;
19903;SDS011;10114;50.970;4.962;2023-06-14T01:04:23;9.05;;;4.80;;
19903;SDS011;10114;50.970;4.962;2023-06-14T01:09:47;9.10;;;5.00;;
19903;SDS011;10114;50.970;4.962;2023-06-14T01:12:16;9.07;;;5.20;;
19903;SDS011;10114;50.970;4.962;2023-06-14T01:14:45;9.88;;;5.00;;
19903;SDS011;10114;50.970;4.962;2023-06-14T01:17:13;9.52;;;5.82;;
19903;SDS011;10114;50.970;4.962;2023-06-14T01:19:45;8.73;;;5.43;;
19903;SDS011;10114;50.970;4.962;2023-06-14T01:22:11;13.32;;;5.43;;
19903;SDS011;10114;50.970;4.962;2023-06-14T01:24:37;9.43;;;5.57;;
19903;SDS011;10114;50.970;4.962;2023-06-14T01:27:04;11.07;;;6.15;;
19903;SDS011;10114;50.970;4.962;2023-06-14T01:29:32;10.07;;;5.65;;
19903;SDS011;10114;50.970;4.962;2023-06-14T01:32:01;9.15;;;5.80;;
19903;SDS011;10114;50.970;4.962;2023-06-14T01:34:27;11.32;;;6.00;;
19903;SDS011;10114;50.970;4.962;2023-06-14T01:36:53;11.57;;;6.20;;
19903;SDS011;10114;50.970;4.962;2023-06-14T01:39:20;11.88;;;5.82;;
19903;SDS011;10114;50.970;4.962;2023-06-14T01:41:47;9.18;;;5.72;;
19903;SDS011;10114;50.970;4.962;2023-06-14T01:44:14;12.25;;;6.40;;
19903;SDS011;10114;50.970;4.962;2023-06-14T01:46:40;11.13;;;5.97;;
19903;SDS011;10114;50.970;4.962;2023-06-14T01:49:06;14.20;;;6.38;;
19903;SDS011;10114;50.970;4.962;2023-06-14T01:51:33;11.20;;;6.40;;
19903;SDS011;10114;50.970;4.962;2023-06-14T01:54:00;12.25;;;6.15;;
19903;SDS011;10114;50.970;4.962;2023-06-14T01:56:26;13.45;;;6.57;;
19903;SDS011;10114;50.970;4.962;2023-06-14T01:58:52;12.13;;;6.63;;
19903;SDS011;10114;50.970;4.962;2023-06-14T02:01:19;12.38;;;6.40;;
19903;SDS011;10114;50.970;4.962;2023-06-14T02:03:46;13.65;;;6.57;;
19903;SDS011;10114;50.970;4.962;2023-06-14T02:06:13;16.45;;;6.47;;
19903;SDS011;10114;50.970;4.962;2023-06-14T02:08:40;11.55;;;7.05;;
19903;SDS011;10114;50.970;4.962;2023-06-14T02:11:07;13.27;;;6.32;;
19903;SDS011;10114;50.970;4.962;2023-06-14T02:13:33;12.45;;;6.53;;
19903;SDS011;10114;50.970;4.962;2023-06-14T02:15:59;10.10;;;6.00;;
19903;SDS011;10114;50.970;4.962;2023-06-14T02:18:26;12.35;;;6.65;;
19903;SDS011;10114;50.970;4.962;2023-06-14T02:20:52;15.43;;;6.93;;
19903;SDS011;10114;50.970;4.962;2023-06-14T02:23:18;10.93;;;7.07;;
19903;SDS011;10114;50.970;4.962;2023-06-14T02:25:44;15.10;;;6.55;;
19903;SDS011;10114;50.970;4.962;2023-06-14T02:28:11;11.95;;;6.88;;
19903;SDS011;10114;50.970;4.962;2023-06-14T02:30:37;11.50;;;6.78;;
19903;SDS011;10114;50.970;4.962;2023-06-14T02:33:03;14.13;;;6.57;;
19903;SDS011;10114;50.970;4.962;2023-06-14T02:35:30;13.15;;;7.10;;
19903;SDS011;10114;50.970;4.962;2023-06-14T02:37:56;13.73;;;6.38;;
19903;SDS011;10114;50.970;4.962;2023-06-14T02:40:22;10.75;;;7.00;;
19903;SDS011;10114;50.970;4.962;2023-06-14T02:42:48;12.77;;;7.18;;
19903;SDS011;10114;50.970;4.962;2023-06-14T02:45:14;11.98;;;7.32;;
19903;SDS011;10114;50.970;4.962;2023-06-14T02:47:40;14.20;;;6.80;;
19903;SDS011;10114;50.970;4.962;2023-06-14T02:50:07;11.60;;;6.60;;
19903;SDS011;10114;50.970;4.962;2023-06-14T02:52:33;14.07;;;6.68;;
19903;SDS011;10114;50.970;4.962;2023-06-14T02:54:59;15.07;;;6.68;;
19903;SDS011;10114;50.970;4.962;2023-06-14T02:57:25;12.70;;;6.15;;
19903;SDS011;10114;50.970;4.962;2023-06-14T02:59:51;16.70;;;7.10;;
19903;SDS011;10114;50.970;4.962;2023-06-14T03:02:17;9.48;;;5.93;;
19903;SDS011;10114;50.970;4.962;2023-06-14T03:04:43;16.25;;;6.88;;
19903;SDS011;10114;50.970;4.962;2023-06-14T03:07:11;15.23;;;6.45;;
19903;SDS011;10114;50.970;4.962;2023-06-14T03:09:38;10.23;;;6.53;;
19903;SDS011;10114;50.970;4.962;2023-06-14T03:12:05;13.00;;;6.93;;
19903;SDS011;10114;50.970;4.962;2023-06-14T03:14:37;11.10;;;6.30;;
19903;SDS011;10114;50.970;4.962;2023-06-14T03:17:03;13.60;;;6.82;;
19903;SDS011;10114;50.970;4.962;2023-06-14T03:19:29;12.13;;;6.47;;
19903;SDS011;10114;50.970;4.962;2023-06-14T03:21:56;11.27;;;6.72;;
19903;SDS011;10114;50.970;4.962;2023-06-14T03:24:23;11.40;;;5.97;;
19903;SDS011;10114;50.970;4.962;2023-06-14T03:26:49;12.32;;;6.20;;
19903;SDS011;10114;50.970;4.962;2023-06-14T03:29:15;14.95;;;6.40;;
19903;SDS011;10114;50.970;4.962;2023-06-14T03:31:56;15.35;;;6.30;;
19903;SDS011;10114;50.970;4.962;2023-06-14T03:34:23;11.48;;;6.20;;
19903;SDS011;10114;50.970;4.962;2023-06-14T03:36:49;13.15;;;7.57;;
19903;SDS011;10114;50.970;4.962;2023-06-14T03:39:15;10.63;;;6.13;;
19903;SDS011;10114;50.970;4.962;2023-06-14T03:41:41;10.38;;;6.07;;
19903;SDS011;10114;50.970;4.962;2023-06-14T03:44:07;14.80;;;7.05;;
19903;SDS011;10114;50.970;4.962;2023-06-14T03:46:33;13.77;;;6.22;;
19903;SDS011;10114;50.970;4.962;2023-06-14T03:48:59;13.05;;;6.60;;
19903;SDS011;10114;50.970;4.962;2023-06-14T03:51:25;11.13;;;6.13;;
19903;SDS011;10114;50.970;4.962;2023-06-14T03:53:51;10.93;;;5.72;;
19903;SDS011;10114;50.970;4.962;2023-06-14T03:56:17;13.15;;;6.75;;
19903;SDS011;10114;50.970;4.962;2023-06-14T03:58:43;11.02;;;6.38;;
19903;SDS011;10114;50.970;4.962;2023-06-14T04:01:09;12.88;;;6.60;;
19903;SDS011;10114;50.970;4.962;2023-06-14T04:03:37;12.90;;;6.90;;
19903;SDS011;10114;50.970;4.962;2023-06-14T04:06:03;14.93;;;6.13;;
19903;SDS011;10114;50.970;4.962;2023-06-14T04:08:30;15.85;;;6.63;;
19903;SDS011;10114;50.970;4.962;2023-06-14T04:10:56;9.95;;;6.13;;
19903;SDS011;10114;50.970;4.962;2023-06-14T04:13:22;9.07;;;5.60;;
19903;SDS011;10114;50.970;4.962;2023-06-14T04:15:48;11.27;;;6.57;;
19903;SDS011;10114;50.970;4.962;2023-06-14T04:18:14;11.70;;;6.70;;
19903;SDS011;10114;50.970;4.962;2023-06-14T04:20:40;14.48;;;6.78;;
19903;SDS011;10114;50.970;4.962;2023-06-14T04:23:13;15.63;;;6.05;;
19903;SDS011;10114;50.970;4.962;2023-06-14T04:25:40;16.30;;;6.20;;
19903;SDS011;10114;50.970;4.962;2023-06-14T04:28:09;11.38;;;6.38;;
19903;SDS011;10114;50.970;4.962;2023-06-14T04:30:36;11.77;;;6.70;;
19903;SDS011;10114;50.970;4.962;2023-06-14T04:33:03;12.27;;;6.22;;
19903;SDS011;10114;50.970;4.962;2023-06-14T04:35:30;11.88;;;6.55;;
19903;SDS011;10114;50.970;4.962;2023-06-14T04:37:57;13.45;;;7.10;;
19903;SDS011;10114;50.970;4.962;2023-06-14T04:40:24;11.07;;;6.43;;
19903;SDS011;10114;50.970;4.962;2023-06-14T04:42:50;14.90;;;7.07;;
19903;SDS011;10114;50.970;4.962;2023-06-14T04:45:16;12.23;;;6.80;;
19903;SDS011;10114;50.970;4.962;2023-06-14T04:47:42;11.80;;;6.50;;
19903;SDS011;10114;50.970;4.962;2023-06-14T04:50:09;12.55;;;6.63;;
19903;SDS011;10114;50.970;4.962;2023-06-14T04:52:36;13.05;;;6.30;;
19903;SDS011;10114;50.970;4.962;2023-06-14T04:55:02;14.27;;;7.03;;
19903;SDS011;10114;50.970;4.962;2023-06-14T04:57:28;11.57;;;6.63;;
19903;SDS011;10114;50.970;4.962;2023-06-14T04:59:55;12.95;;;6.95;;
19903;SDS011;10114;50.970;4.962;2023-06-14T05:02:22;12.00;;;7.25;;
19903;SDS011;10114;50.970;4.962;2023-06-14T05:04:48;12.95;;;7.03;;
19903;SDS011;10114;50.970;4.962;2023-06-14T05:07:14;12.70;;;7.15;;
19903;SDS011;10114;50.970;4.962;2023-06-14T05:09:40;13.98;;;7.30;;
19903;SDS011;10114;50.970;4.962;2023-06-14T05:12:07;13.70;;;6.57;;
19903;SDS011;10114;50.970;4.962;2023-06-14T05:14:33;12.90;;;6.65;;
19903;SDS011;10114;50.970;4.962;2023-06-14T05:17:00;10.90;;;6.57;;
19903;SDS011;10114;50.970;4.962;2023-06-14T05:19:27;17.00;;;7.18;;
19903;SDS011;10114;50.970;4.962;2023-06-14T05:21:53;19.20;;;7.03;;
19903;SDS011;10114;50.970;4.962;2023-06-14T05:24:19;14.23;;;7.03;;
19903;SDS011;10114;50.970;4.962;2023-06-14T05:26:46;12.43;;;6.90;;
19903;SDS011;10114;50.970;4.962;2023-06-14T05:29:12;14.60;;;6.43;;
19903;SDS011;10114;50.970;4.962;2023-06-14T05:31:38;13.77;;;6.88;;
19903;SDS011;10114;50.970;4.962;2023-06-14T05:34:04;10.05;;;6.78;;
19903;SDS011;10114;50.970;4.962;2023-06-14T05:36:30;12.55;;;6.55;;
19903;SDS011;10114;50.970;4.962;2023-06-14T05:38:56;12.88;;;6.97;;
19903;SDS011;10114;50.970;4.962;2023-06-14T05:41:27;12.15;;;6.88;;
19903;SDS011;10114;50.970;4.962;2023-06-14T05:43:54;10.73;;;6.47;;
19903;SDS011;10114;50.970;4.962;2023-06-14T05:46:20;14.90;;;7.28;;
19903;SDS011;10114;50.970;4.962;2023-06-14T05:48:49;14.10;;;7.35;;
19903;SDS011;10114;50.970;4.962;2023-06-14T05:51:15;13.00;;;7.07;;
19903;SDS011;10114;50.970;4.962;2023-06-14T05:53:47;17.48;;;7.10;;
19903;SDS011;10114;50.970;4.962;2023-06-14T05:56:14;11.77;;;6.38;;
19903;SDS011;10114;50.970;4.962;2023-06-14T05:58:40;12.38;;;6.68;;
19903;SDS011;10114;50.970;4.962;2023-06-14T06:01:07;9.73;;;6.63;;
19903;SDS011;10114;50.970;4.962;2023-06-14T06:03:33;11.63;;;7.95;;
19903;SDS011;10114;50.970;4.962;2023-06-14T06:05:59;18.60;;;6.68;;
19903;SDS011;10114;50.970;4.962;2023-06-14T06:08:26;12.80;;;6.43;;
19903;SDS011;10114;50.970;4.962;2023-06-14T06:10:52;11.55;;;6.65;;
19903;SDS011;10114;50.970;4.962;2023-06-14T06:13:18;16.65;;;6.38;;
19903;SDS011;10114;50.970;4.962;2023-06-14T06:15:44;19.17;;;7.05;;
19903;SDS011;10114;50.970;4.962;2023-06-14T06:18:11;16.77;;;6.63;;
19903;SDS011;10114;50.970;4.962;2023-06-14T06:20:37;15.57;;;6.68;;
19903;SDS011;10114;50.970;4.962;2023-06-14T06:23:03;15.50;;;6.88;;
19903;SDS011;10114;50.970;4.962;2023-06-14T06:25:29;15.80;;;7.53;;
19903;SDS011;10114;50.970;4.962;2023-06-14T06:27:56;11.30;;;6.57;;
19903;SDS011;10114;50.970;4.962;2023-06-14T06:30:23;11.73;;;5.50;;
19903;SDS011;10114;50.970;4.962;2023-06-14T06:32:49;14.65;;;7.25;;
19903;SDS011;10114;50.970;4.962;2023-06-14T06:35:16;9.90;;;6.32;;
19903;SDS011;10114;50.970;4.962;2023-06-14T06:37:42;12.93;;;6.47;;
19903;SDS011;10114;50.970;4.962;2023-06-14T06:40:08;13.57;;;6.88;;
19903;SDS011;10114;50.970;4.962;2023-06-14T06:42:35;12.27;;;6.32;;
19903;SDS011;10114;50.970;4.962;2023-06-14T06:45:01;13.93;;;6.50;;
19903;SDS011;10114;50.970;4.962;2023-06-14T06:47:27;19.15;;;7.15;;
19903;SDS011;10114;50.970;4.962;2023-06-14T06:49:53;12.48;;;7.35;;
19903;SDS011;10114;50.970;4.962;2023-06-14T06:52:19;13.05;;;6.97;;
19903;SDS011;10114;50.970;4.962;2023-06-14T06:54:45;14.02;;;6.60;;
19903;SDS011;10114;50.970;4.962;2023-06-14T06:57:11;12.63;;;6.10;;
19903;SDS011;10114;50.970;4.962;2023-06-14T06:59:37;14.93;;;6.50;;
19903;SDS011;10114;50.970;4.962;2023-06-14T07:02:03;12.93;;;6.80;;
19903;SDS011;10114;50.970;4.962;2023-06-14T07:04:30;11.85;;;5.70;;
19903;SDS011;10114;50.970;4.962;2023-06-14T07:06:56;12.80;;;5.72;;
19903;SDS011;10114;50.970;4.962;2023-06-14T07:09:22;12.45;;;6.28;;
19903;SDS011;10114;50.970;4.962;2023-06-14T07:11:49;12.25;;;5.95;;
19903;SDS011;10114;50.970;4.962;2023-06-14T07:14:15;10.82;;;6.50;;
19903;SDS011;10114;50.970;4.962;2023-06-14T07:16:41;13.75;;;6.55;;
19903;SDS011;10114;50.970;4.962;2023-06-14T07:19:08;15.70;;;6.18;;
19903;SDS011;10114;50.970;4.962;2023-06-14T07:21:35;12.38;;;6.72;;
19903;SDS011;10114;50.970;4.962;2023-06-14T07:24:05;11.65;;;6.20;;
19903;SDS011;10114;50.970;4.962;2023-06-14T07:26:34;12.13;;;6.13;;
19903;SDS011;10114;50.970;4.962;2023-06-14T07:29:00;12.57;;;6.03;;
19903;SDS011;10114;50.970;4.962;2023-06-14T07:31:26;13.60;;;5.95;;
19903;SDS011;10114;50.970;4.962;2023-06-14T07:33:52;10.88;;;5.65;;
19903;SDS011;10114;50.970;4.962;2023-06-14T07:36:18;15.60;;;6.30;;
19903;SDS011;10114;50.970;4.962;2023-06-14T07:38:45;11.60;;;5.90;;
19903;SDS011;10114;50.970;4.962;2023-06-14T07:41:11;10.25;;;5.97;;
19903;SDS011;10114;50.970;4.962;2023-06-14T07:43:37;13.52;;;5.97;;
19903;SDS011;10114;50.970;4.962;2023-06-14T07:46:04;13.60;;;6.50;;
19903;SDS011;10114;50.970;4.962;2023-06-14T07:48:30;14.50;;;6.30;;
19903;SDS011;10114;50.970;4.962;2023-06-14T07:50:56;11.30;;;5.70;;
19903;SDS011;10114;50.970;4.962;2023-06-14T07:53:22;11.85;;;6.28;;
19903;SDS011;10114;50.970;4.962;2023-06-14T07:55:48;9.23;;;5.72;;
19903;SDS011;10114;50.970;4.962;2023-06-14T07:58:15;9.75;;;5.57;;
19903;SDS011;10114;50.970;4.962;2023-06-14T08:00:41;10.73;;;5.20;;
19903;SDS011;10114;50.970;4.962;2023-06-14T08:03:07;13.05;;;6.25;;
19903;SDS011;10114;50.970;4.962;2023-06-14T08:05:33;11.15;;;6.10;;
19903;SDS011;10114;50.970;4.962;2023-06-14T08:08:00;8.77;;;5.35;;
19903;SDS011;10114;50.970;4.962;2023-06-14T08:10:26;11.20;;;5.47;;
19903;SDS011;10114;50.970;4.962;2023-06-14T08:12:52;12.20;;;6.88;;
19903;SDS011;10114;50.970;4.962;2023-06-14T08:15:18;10.00;;;5.53;;
19903;SDS011;10114;50.970;4.962;2023-06-14T08:17:44;10.20;;;5.95;;
19903;SDS011;10114;50.970;4.962;2023-06-14T08:20:10;9.45;;;5.60;;
19903;SDS011;10114;50.970;4.962;2023-06-14T08:22:36;12.32;;;5.95;;
19903;SDS011;10114;50.970;4.962;2023-06-14T08:25:03;13.18;;;5.40;;
19903;SDS011;10114;50.970;4.962;2023-06-14T08:27:29;11.40;;;6.05;;
19903;SDS011;10114;50.970;4.962;2023-06-14T08:29:55;15.10;;;6.30;;
19903;SDS011;10114;50.970;4.962;2023-06-14T08:32:21;12.68;;;5.88;;
19903;SDS011;10114;50.970;4.962;2023-06-14T08:34:47;12.00;;;5.50;;
19903;SDS011;10114;50.970;4.962;2023-06-14T08:37:13;9.80;;;5.40;;
19903;SDS011;10114;50.970;4.962;2023-06-14T08:39:39;10.52;;;5.60;;
19903;SDS011;10114;50.970;4.962;2023-06-14T08:42:06;11.52;;;5.60;;
19903;SDS011;10114;50.970;4.962;2023-06-14T08:44:33;15.27;;;5.90;;
19903;SDS011;10114;50.970;4.962;2023-06-14T08:46:59;14.25;;;5.18;;
19903;SDS011;10114;50.970;4.962;2023-06-14T08:49:25;9.75;;;5.32;;
19903;SDS011;10114;50.970;4.962;2023-06-14T08:51:53;11.32;;;5.20;;
19903;SDS011;10114;50.970;4.962;2023-06-14T08:54:22;14.23;;;5.43;;
19903;SDS011;10114;50.970;4.962;2023-06-14T08:56:49;11.20;;;5.15;;
19903;SDS011;10114;50.970;4.962;2023-06-14T08:59:17;11.95;;;5.13;;
19903;SDS011;10114;50.970;4.962;2023-06-14T09:01:43;11.52;;;4.22;;
19903;SDS011;10114;50.970;4.962;2023-06-14T09:04:10;9.85;;;5.10;;
19903;SDS011;10114;50.970;4.962;2023-06-14T09:06:36;9.98;;;5.18;;
19903;SDS011;10114;50.970;4.962;2023-06-14T09:09:02;13.20;;;4.80;;
19903;SDS011;10114;50.970;4.962;2023-06-14T09:11:29;13.05;;;4.60;;
19903;SDS011;10114;50.970;4.962;2023-06-14T09:13:56;14.10;;;4.47;;
19903;SDS011;10114;50.970;4.962;2023-06-14T09:16:22;12.32;;;4.60;;
19903;SDS011;10114;50.970;4.962;2023-06-14T09:18:48;7.78;;;4.32;;
19903;SDS011;10114;50.970;4.962;2023-06-14T09:21:14;8.05;;;4.60;;
19903;SDS011;10114;50.970;4.962;2023-06-14T09:23:45;13.88;;;4.68;;
19903;SDS011;10114;50.970;4.962;2023-06-14T09:26:12;11.35;;;4.30;;
19903;SDS011;10114;50.970;4.962;2023-06-14T09:28:42;10.73;;;4.30;;
19903;SDS011;10114;50.970;4.962;2023-06-14T09:31:10;9.38;;;4.43;;
19903;SDS011;10114;50.970;4.962;2023-06-14T09:33:36;9.27;;;4.10;;
19903;SDS011;10114;50.970;4.962;2023-06-14T09:36:03;10.48;;;4.72;;
19903;SDS011;10114;50.970;4.962;2023-06-14T09:38:29;10.35;;;5.00;;
19903;SDS011;10114;50.970;4.962;2023-06-14T09:40:58;10.25;;;3.78;;
19903;SDS011;10114;50.970;4.962;2023-06-14T09:43:24;9.77;;;4.10;;
19903;SDS011;10114;50.970;4.962;2023-06-14T09:45:52;8.65;;;4.00;;
19903;SDS011;10114;50.970;4.962;2023-06-14T09:48:19;7.93;;;3.72;;
19903;SDS011;10114;50.970;4.962;2023-06-14T09:50:45;6.85;;;3.47;;
19903;SDS011;10114;50.970;4.962;2023-06-14T09:53:14;7.55;;;3.28;;
19903;SDS011;10114;50.970;4.962;2023-06-14T09:55:41;9.77;;;4.57;;
19903;SDS011;10114;50.970;4.962;2023-06-14T09:58:08;11.02;;;3.55;;
19903;SDS011;10114;50.970;4.962;2023-06-14T10:00:35;8.02;;;3.35;;
19903;SDS011;10114;50.970;4.962;2023-06-14T10:03:12;10.70;;;3.60;;
19903;SDS011;10114;50.970;4.962;2023-06-14T10:05:38;7.40;;;3.63;;
19903;SDS011;10114;50.970;4.962;2023-06-14T10:08:07;5.55;;;3.38;;
19903;SDS011;10114;50.970;4.962;2023-06-14T10:10:34;11.00;;;3.67;;
19903;SDS011;10114;50.970;4.962;2023-06-14T10:13:00;7.40;;;3.05;;
19903;SDS011;10114;50.970;4.962;2023-06-14T10:15:32;6.47;;;2.95;;
19903;SDS011;10114;50.970;4.962;2023-06-14T10:18:06;8.70;;;3.25;;
19903;SDS011;10114;50.970;4.962;2023-06-14T10:20:35;7.78;;;3.35;;
19903;SDS011;10114;50.970;4.962;2023-06-14T10:25:35;9.32;;;3.33;;
19903;SDS011;10114;50.970;4.962;2023-06-14T10:30:40;9.07;;;3.33;;
19903;SDS011;10114;50.970;4.962;2023-06-14T10:33:27;11.68;;;3.85;;
19903;SDS011;10114;50.970;4.962;2023-06-14T10:36:35;10.85;;;3.33;;
19903;SDS011;10114;50.970;4.962;2023-06-14T10:38:42;10.07;;;3.42;;
19903;SDS011;10114;50.970;4.962;2023-06-14T10:41:08;7.90;;;3.15;;
19903;SDS011;10114;50.970;4.962;2023-06-14T10:43:35;7.43;;;3.42;;
19903;SDS011;10114;50.970;4.962;2023-06-14T10:48:43;5.80;;;3.55;;
19903;SDS011;10114;50.970;4.962;2023-06-14T10:51:18;8.27;;;3.25;;
19903;SDS011;10114;50.970;4.962;2023-06-14T10:53:46;8.00;;;3.28;;
19903;SDS011;10114;50.970;4.962;2023-06-14T10:56:33;13.07;;;4.15;;
19903;SDS011;10114;50.970;4.962;2023-06-14T10:58:59;10.98;;;3.30;;
19903;SDS011;10114;50.970;4.962;2023-06-14T11:01:36;7.75;;;3.05;;
19903;SDS011;10114;50.970;4.962;2023-06-14T11:04:07;8.52;;;3.35;;
19903;SDS011;10114;50.970;4.962;2023-06-14T11:06:52;9.10;;;2.92;;
19903;SDS011;10114;50.970;4.962;2023-06-14T11:12:09;7.47;;;2.83;;
19903;SDS011;10114;50.970;4.962;2023-06-14T11:14:36;6.03;;;2.78;;
19903;SDS011;10114;50.970;4.962;2023-06-14T11:17:03;7.47;;;3.25;;
19903;SDS011;10114;50.970;4.962;2023-06-14T11:19:29;6.65;;;2.70;;
19903;SDS011;10114;50.970;4.962;2023-06-14T11:21:56;9.00;;;3.25;;
19903;SDS011;10114;50.970;4.962;2023-06-14T11:24:22;6.53;;;2.70;;
19903;SDS011;10114;50.970;4.962;2023-06-14T11:26:49;7.68;;;2.60;;
19903;SDS011;10114;50.970;4.962;2023-06-14T11:29:15;6.85;;;2.70;;
19903;SDS011;10114;50.970;4.962;2023-06-14T11:31:45;6.68;;;2.70;;
19903;SDS011;10114;50.970;4.962;2023-06-14T11:34:11;6.88;;;2.50;;
19903;SDS011;10114;50.970;4.962;2023-06-14T11:36:38;6.75;;;2.42;;
19903;SDS011;10114;50.970;4.962;2023-06-14T11:39:04;5.03;;;2.15;;
19903;SDS011;10114;50.970;4.962;2023-06-14T11:41:32;4.88;;;2.42;;
19903;SDS011;10114;50.970;4.962;2023-06-14T11:43:59;5.97;;;2.47;;
19903;SDS011;10114;50.970;4.962;2023-06-14T11:46:26;5.82;;;2.35;;
19903;SDS011;10114;50.970;4.962;2023-06-14T11:48:52;8.57;;;2.58;;
19903;SDS011;10114;50.970;4.962;2023-06-14T11:51:18;4.97;;;1.88;;
19903;SDS011;10114;50.970;4.962;2023-06-14T11:53:45;5.55;;;2.33;;
19903;SDS011;10114;50.970;4.962;2023-06-14T11:56:12;5.53;;;2.08;;
19903;SDS011;10114;50.970;4.962;2023-06-14T11:58:38;9.90;;;2.60;;
19903;SDS011;10114;50.970;4.962;2023-06-14T12:01:05;7.40;;;2.00;;
19903;SDS011;10114;50.970;4.962;2023-06-14T12:03:31;7.50;;;1.92;;
19903;SDS011;10114;50.970;4.962;2023-06-14T12:06:04;6.13;;;2.22;;
19903;SDS011;10114;50.970;4.962;2023-06-14T12:08:35;6.05;;;2.08;;
19903;SDS011;10114;50.970;4.962;2023-06-14T12:11:11;5.78;;;1.83;;
19903;SDS011;10114;50.970;4.962;2023-06-14T12:13:38;7.43;;;1.83;;
19903;SDS011;10114;50.970;4.962;2023-06-14T12:16:11;10.65;;;2.30;;
19903;SDS011;10114;50.970;4.962;2023-06-14T12:18:38;7.32;;;1.70;;
19903;SDS011;10114;50.970;4.962;2023-06-14T12:21:08;6.90;;;1.52;;
19903;SDS011;10114;50.970;4.962;2023-06-14T12:23:47;4.95;;;1.70;;
19903;SDS011;10114;50.970;4.962;2023-06-14T12:26:14;6.22;;;1.80;;
19903;SDS011;10114;50.970;4.962;2023-06-14T12:28:41;7.43;;;1.50;;
19903;SDS011;10114;50.970;4.962;2023-06-14T12:31:08;4.10;;;2.40;;
19903;SDS011;10114;50.970;4.962;2023-06-14T12:33:34;3.75;;;1.55;;
19903;SDS011;10114;50.970;4.962;2023-06-14T12:36:02;5.15;;;1.73;;
19903;SDS011;10114;50.970;4.962;2023-06-14T12:38:28;3.17;;;1.42;;
19903;SDS011;10114;50.970;4.962;2023-06-14T12:40:54;9.52;;;1.60;;
19903;SDS011;10114;50.970;4.962;2023-06-14T12:43:20;5.30;;;1.70;;
19903;SDS011;10114;50.970;4.962;2023-06-14T12:45:46;3.55;;;1.20;;
19903;SDS011;10114;50.970;4.962;2023-06-14T12:48:12;3.58;;;1.30;;
19903;SDS011;10114;50.970;4.962;2023-06-14T12:50:38;4.97;;;1.35;;
19903;SDS011;10114;50.970;4.962;2023-06-14T12:53:04;4.80;;;1.67;;
19903;SDS011;10114;50.970;4.962;2023-06-14T12:55:31;3.90;;;1.30;;
19903;SDS011;10114;50.970;4.962;2023-06-14T12:57:57;5.70;;;1.95;;
19903;SDS011;10114;50.970;4.962;2023-06-14T13:00:23;3.72;;;1.35;;
19903;SDS011;10114;50.970;4.962;2023-06-14T13:02:51;5.57;;;1.58;;
19903;SDS011;10114;50.970;4.962;2023-06-14T13:05:17;4.05;;;1.33;;
19903;SDS011;10114;50.970;4.962;2023-06-14T13:07:43;6.53;;;1.60;;
19903;SDS011;10114;50.970;4.962;2023-06-14T13:10:09;9.45;;;1.67;;
19903;SDS011;10114;50.970;4.962;2023-06-14T13:12:35;6.60;;;1.85;;
19903;SDS011;10114;50.970;4.962;2023-06-14T13:15:01;4.22;;;1.42;;
19903;SDS011;10114;50.970;4.962;2023-06-14T13:17:28;6.10;;;1.73;;
19903;SDS011;10114;50.970;4.962;2023-06-14T13:19:54;7.05;;;1.67;;
19903;SDS011;10114;50.970;4.962;2023-06-14T13:22:20;5.05;;;1.52;;
19903;SDS011;10114;50.970;4.962;2023-06-14T13:24:46;6.32;;;1.63;;
19903;SDS011;10114;50.970;4.962;2023-06-14T13:27:12;5.35;;;1.63;;
19903;SDS011;10114;50.970;4.962;2023-06-14T13:29:39;7.97;;;2.10;;
19903;SDS011;10114;50.970;4.962;2023-06-14T13:32:05;8.23;;;2.50;;
19903;SDS011;10114;50.970;4.962;2023-06-14T13:34:32;3.08;;;1.40;;
19903;SDS011;10114;50.970;4.962;2023-06-14T13:36:58;3.97;;;1.70;;
19903;SDS011;10114;50.970;4.962;2023-06-14T13:39:24;5.05;;;1.70;;
19903;SDS011;10114;50.970;4.962;2023-06-14T13:41:50;4.95;;;1.50;;
19903;SDS011;10114;50.970;4.962;2023-06-14T13:44:16;7.43;;;1.80;;
19903;SDS011;10114;50.970;4.962;2023-06-14T13:46:46;6.10;;;1.50;;
19903;SDS011;10114;50.970;4.962;2023-06-14T13:49:12;6.78;;;1.70;;
19903;SDS011;10114;50.970;4.962;2023-06-14T13:51:38;3.33;;;1.40;;
19903;SDS011;10114;50.970;4.962;2023-06-14T13:54:04;7.22;;;1.92;;
19903;SDS011;10114;50.970;4.962;2023-06-14T13:56:30;4.90;;;1.50;;
19903;SDS011;10114;50.970;4.962;2023-06-14T13:58:56;5.57;;;1.33;;
19903;SDS011;10114;50.970;4.962;2023-06-14T14:01:22;4.65;;;1.67;;
19903;SDS011;10114;50.970;4.962;2023-06-14T14:03:49;4.88;;;1.60;;
19903;SDS011;10114;50.970;4.962;2023-06-14T14:06:15;7.15;;;2.00;;
19903;SDS011;10114;50.970;4.962;2023-06-14T14:08:41;5.72;;;1.77;;
19903;SDS011;10114;50.970;4.962;2023-06-14T14:11:08;4.32;;;1.90;;
19903;SDS011;10114;50.970;4.962;2023-06-14T14:13:35;16.77;;;3.50;;
19903;SDS011;10114;50.970;4.962;2023-06-14T14:16:01;4.28;;;1.95;;
19903;SDS011;10114;50.970;4.962;2023-06-14T14:18:28;10.52;;;2.40;;
19903;SDS011;10114;50.970;4.962;2023-06-14T14:20:54;5.25;;;1.85;;
19903;SDS011;10114;50.970;4.962;2023-06-14T14:23:21;7.00;;;2.00;;
19903;SDS011;10114;50.970;4.962;2023-06-14T14:25:47;10.07;;;2.63;;
19903;SDS011;10114;50.970;4.962;2023-06-14T14:28:13;4.90;;;1.83;;
19903;SDS011;10114;50.970;4.962;2023-06-14T14:30:41;6.13;;;1.73;;
19903;SDS011;10114;50.970;4.962;2023-06-14T14:33:07;4.90;;;1.60;;
19903;SDS011;10114;50.970;4.962;2023-06-14T14:35:33;4.57;;;1.60;;
19903;SDS011;10114;50.970;4.962;2023-06-14T14:37:59;7.40;;;1.70;;
19903;SDS011;10114;50.970;4.962;2023-06-14T14:40:28;3.60;;;1.52;;
19903;SDS011;10114;50.970;4.962;2023-06-14T14:42:54;6.20;;;2.00;;
19903;SDS011;10114;50.970;4.962;2023-06-14T14:45:20;5.85;;;1.50;;
19903;SDS011;10114;50.970;4.962;2023-06-14T14:47:46;4.82;;;1.70;;
19903;SDS011;10114;50.970;4.962;2023-06-14T14:50:12;6.00;;;1.83;;
19903;SDS011;10114;50.970;4.962;2023-06-14T14:52:38;4.10;;;1.77;;